Time;durP1;ratioP1;P1;durP2;ratioP2;P2;SDS_P1;SDS_P2;PMS_P1;PMS_P2;Temp;Humidity;BMP_temperature;BMP_pressure;BME280_temperature;BME280_humidity;BME280_pressure;Samples;Min_cycle;Max_cycle;Signal;HPM_P1;HPM_P2
2022/05/30 00:00:20;;;;;;;1.20;1.00;;;;;;;12.84;60.76;98468.67;104565;1274;62276;-25
2022/05/30 00:02:48;;;;;;;2.60;0.90;;;;;;;12.82;60.66;98462.49;104436;1277;63202;-25
2022/05/30 00:05:16;;;;;;;1.70;1.10;;;;;;;12.79;61.12;98456.30;104552;1277;74540;-25
2022/05/30 00:07:43;;;;;;;1.10;0.80;;;;;;;12.76;61.12;98455.75;104458;1277;77234;-25
2022/05/30 00:10:11;;;;;;;2.30;1.10;;;;;;;12.76;60.52;98450.35;104453;1277;74525;-25
2022/05/30 00:12:39;;;;;;;2.60;1.50;;;;;;;12.75;59.97;98446.30;104322;1277;61991;-25
2022/05/30 00:15:08;;;;;;;2.10;1.50;;;;;;;12.77;59.79;98445.50;104485;1277;63669;-25
2022/05/30 00:17:35;;;;;;;2.80;1.50;;;;;;;12.82;59.16;98446.10;104545;1277;75718;-25
2022/05/30 00:20:06;;;;;;;4.70;1.70;;;;;;;12.88;59.14;98444.30;104506;1277;76108;-25
2022/05/30 00:22:33;;;;;;;4.30;2.40;;;;;;;12.92;58.43;98437.61;104514;1277;75381;-24
2022/05/30 00:25:01;;;;;;;9.60;2.20;;;;;;;12.97;58.73;98433.15;104462;1277;61924;-25
2022/05/30 00:27:28;;;;;;;3.90;2.40;;;;;;;13.00;58.62;98429.88;104343;1277;62044;-25
2022/05/30 00:29:55;;;;;;;5.90;2.20;;;;;;;13.02;58.47;98422.82;104366;1277;75938;-24
2022/05/30 00:32:23;;;;;;;3.10;2.00;;;;;;;13.09;58.64;98419.48;104570;1277;77009;-24
2022/05/30 00:34:51;;;;;;;5.40;2.10;;;;;;;13.14;58.60;98414.31;104660;1277;75460;-24
2022/05/30 00:37:18;;;;;;;5.00;2.20;;;;;;;13.17;58.45;98404.27;104650;1277;61314;-24
2022/05/30 00:39:45;;;;;;;5.20;2.50;;;;;;;13.16;58.55;98400.67;104666;1277;61132;-25
2022/05/30 00:42:15;;;;;;;3.90;1.90;;;;;;;13.16;58.85;98398.09;104655;1277;74770;-25
2022/05/30 00:44:44;;;;;;;3.60;1.60;;;;;;;13.14;58.83;98396.93;104602;1277;77000;-25
2022/05/30 00:47:11;;;;;;;2.60;1.50;;;;;;;13.13;59.13;98397.33;104625;1277;74360;-24
2022/05/30 00:49:40;;;;;;;2.90;1.20;;;;;;;13.13;59.53;98397.52;104718;1277;63135;-25
2022/05/30 00:52:09;;;;;;;1.30;1.00;;;;;;;13.12;59.66;98399.21;104616;1277;62946;-25
2022/05/30 00:54:43;;;;;;;1.80;0.90;;;;;;;13.10;59.86;98406.39;104428;1277;73733;-25
2022/05/30 00:57:32;;;;;;;;;;;;;;;13.10;60.03;98412.66;104585;1278;77073;-24
2022/05/30 01:00:00;;;;;;;3.30;1.40;;;;;;;13.09;60.24;98416.31;104514;1277;74389;-24
2022/05/30 01:02:30;;;;;;;2.20;1.20;;;;;;;13.11;60.38;98415.90;104552;1271;61860;-25
2022/05/30 01:07:45;;;;;;;1.50;1.30;;;;;;;13.12;60.90;98417.64;104659;1271;74166;-24
2022/05/30 01:10:14;;;;;;;3.30;1.10;;;;;;;13.13;60.74;98414.55;104688;1274;76992;-24
2022/05/30 01:12:52;;;;;;;2.10;1.30;;;;;;;13.14;61.24;98404.00;104737;1271;75357;-24
2022/05/30 01:15:26;;;;;;;1.50;1.10;;;;;;;13.16;61.43;98404.36;104644;1271;61129;-24
2022/05/30 01:18:00;;;;;;;2.40;1.20;;;;;;;13.16;61.55;98399.80;104649;1271;63024;-24
2022/05/30 01:20:41;;;;;;;5.40;1.20;;;;;;;13.17;61.98;98397.77;104594;1271;75555;-24
2022/05/30 01:23:30;;;;;;;3.20;1.40;;;;;;;13.18;61.99;98399.11;104683;1272;76214;-24
2022/05/30 01:26:10;;;;;;;1.80;1.30;;;;;;;13.18;62.35;98399.27;104699;1271;73250;-24
2022/05/30 01:28:46;;;;;;;5.90;1.50;;;;;;;13.17;62.67;98399.50;104770;1271;63083;-24
2022/05/30 01:31:14;;;;;;;2.40;1.40;;;;;;;13.17;62.47;98398.52;104640;1271;62004;-24
2022/05/30 01:33:42;;;;;;;4.20;1.50;;;;;;;13.20;62.67;98392.97;104654;1271;74795;-26
2022/05/30 01:36:09;;;;;;;2.50;1.20;;;;;;;13.72;61.93;98386.42;104808;1271;75526;-24
2022/05/30 01:38:36;;;;;;;1.50;1.10;;;;;;;14.17;60.59;98380.65;104680;1272;75344;-24
2022/05/30 01:41:04;;;;;;;2.10;1.30;;;;;;;14.25;60.44;98381.23;104757;1271;61611;-24
2022/05/30 01:43:32;;;;;;;2.90;1.30;;;;;;;14.16;61.07;98379.00;104696;1274;63274;-24
2022/05/30 01:46:09;;;;;;;1.50;1.10;;;;;;;14.01;61.55;98382.92;104805;1271;74189;-24
2022/05/30 01:48:41;;;;;;;4.90;1.60;;;;;;;13.84;62.15;98386.01;104683;1271;75914;-24
2022/05/30 01:51:09;;;;;;;2.30;1.40;;;;;;;13.71;62.29;98384.61;104844;1271;74312;-24
2022/05/30 01:53:36;;;;;;;2.10;1.20;;;;;;;13.58;62.77;98382.28;104707;1271;62059;-24
2022/05/30 01:56:22;;;;;;;2.90;1.50;;;;;;;13.46;63.19;98381.58;104699;1274;61813;-24
2022/05/30 01:58:51;;;;;;;2.60;1.30;;;;;;;13.38;63.55;98386.61;105018;1271;75125;-24
2022/05/30 02:01:45;;;;;;;4.30;1.60;;;;;;;13.30;63.74;98384.79;104556;1274;77693;-24
2022/05/30 02:04:15;;;;;;;2.40;1.40;;;;;;;13.23;63.98;98382.17;104768;1271;75554;-24
2022/05/30 02:06:42;;;;;;;2.10;1.40;;;;;;;13.18;63.70;98382.52;104914;1271;61891;-25
2022/05/30 02:09:11;;;;;;;2.30;0.90;;;;;;;13.17;63.96;98378.13;104987;1274;61092;-27
2022/05/30 02:11:38;;;;;;;1.60;1.40;;;;;;;13.72;63.52;98377.23;104720;1274;75678;-26
2022/05/30 02:14:26;;;;;;;2.10;1.10;;;;;;;14.24;62.14;98383.04;104589;1274;76099;-26
2022/05/30 02:17:04;;;;;;;2.80;1.20;;;;;;;14.27;62.03;98388.98;104712;1274;74387;-24
2022/05/30 02:19:37;;;;;;;2.90;1.50;;;;;;;14.16;62.07;98391.80;104577;1271;63076;-25
2022/05/30 02:22:09;;;;;;;2.80;1.90;;;;;;;13.99;62.90;98397.89;104635;1271;61200;-24
2022/05/30 02:24:37;;;;;;;2.10;1.30;;;;;;;13.83;63.42;98402.92;104629;1271;76555;-24
2022/05/30 02:27:09;;;;;;;4.30;1.60;;;;;;;13.65;64.16;98402.67;104646;1274;76943;-24
2022/05/30 02:29:36;;;;;;;1.90;1.40;;;;;;;13.47;65.45;98402.07;104751;1271;75378;-24
2022/05/30 02:32:05;;;;;;;2.60;1.50;;;;;;;13.30;65.90;98405.84;104609;1274;63217;-24
2022/05/30 02:37:19;;;;;;;3.50;1.40;;;;;;;13.70;67.24;98411.43;105116;1271;74433;-23
2022/05/30 02:39:47;;;;;;;3.20;1.60;;;;;;;14.19;66.38;98416.41;104992;1271;77034;-21
2022/05/30 02:42:23;;;;;;;1.90;1.30;;;;;;;14.21;66.35;98423.91;104639;1274;75314;-21
2022/05/30 02:44:51;;;;;;;2.40;1.40;;;;;;;13.99;66.72;98434.15;104636;1271;61866;-21
2022/05/30 02:47:18;;;;;;;3.80;1.80;;;;;;;13.75;67.21;98435.15;104787;1274;62003;-21
2022/05/30 02:49:52;;;;;;;;;;;;;;;13.48;67.73;98434.27;105092;1271;74818;-22
2022/05/30 02:52:19;;;;;;;6.70;1.30;;;;;;;13.23;68.60;98429.64;104636;1271;77051;-22
2022/05/30 02:54:47;;;;;;;2.80;1.50;;;;;;;13.00;69.40;98435.42;104791;1271;75409;-20
2022/05/30 02:57:26;;;;;;;1.70;1.00;;;;;;;12.83;70.47;98436.77;104620;1271;64134;-20
2022/05/30 02:59:54;;;;;;;1.60;1.20;;;;;;;13.31;70.40;98437.85;104666;1274;63157;-22
2022/05/30 03:02:21;;;;;;;3.20;1.40;;;;;;;13.84;69.11;98437.66;104637;1272;76955;-22
2022/05/30 03:04:49;;;;;;;1.30;1.20;;;;;;;13.86;68.31;98428.05;104753;1271;76963;-23
2022/05/30 03:07:18;;;;;;;4.00;2.10;;;;;;;13.63;68.79;98416.13;104633;1271;73279;-22
2022/05/30 03:09:45;;;;;;;16.20;7.70;;;;;;;13.21;71.74;98398.43;104699;1271;61811;-23
2022/05/30 03:12:12;;;;;;;6.20;3.20;;;;;;;12.96;72.58;98404.60;104616;1271;62858;-24
2022/05/30 03:14:40;;;;;;;13.50;7.80;;;;;;;12.78;72.29;98413.40;104861;1271;75321;-23
2022/05/30 03:17:08;;;;;;;10.50;5.80;;;;;;;12.62;72.88;98424.06;104775;1270;77326;-23
2022/05/30 03:19:37;;;;;;;7.50;3.60;;;;;;;13.00;73.46;98431.96;104710;1271;73875;-23
2022/05/30 03:22:05;;;;;;;6.00;2.70;;;;;;;13.32;72.69;98433.52;104688;1274;61976;-24
2022/05/30 03:24:42;;;;;;;4.10;2.00;;;;;;;13.28;72.62;98437.33;104842;1272;61595;-23
2022/05/30 03:27:14;;;;;;;4.40;2.40;;;;;;;13.07;73.09;98439.09;104701;1274;76850;-23
2022/05/30 03:29:41;;;;;;;2.80;1.80;;;;;;;12.83;74.34;98438.01;104601;1274;76967;-22
2022/05/30 03:32:09;;;;;;;1.50;1.00;;;;;;;12.64;75.78;98442.00;104628;1274;75346;-22
2022/05/30 03:34:37;;;;;;;2.30;1.10;;;;;;;13.03;75.15;98435.83;105087;1271;62537;-23
2022/05/30 03:37:04;;;;;;;2.10;1.60;;;;;;;13.43;74.25;98431.73;104890;1271;61118;-22
2022/05/30 03:39:43;;;;;;;2.20;1.50;;;;;;;13.42;74.06;98423.55;104744;1271;76918;-23
2022/05/30 03:42:16;;;;;;;4.00;1.80;;;;;;;13.15;75.42;98417.48;104631;1274;76847;-23
2022/05/30 03:45:13;;;;;;;3.20;2.50;;;;;;;12.85;76.65;98411.27;104619;1271;74253;-23
2022/05/30 03:47:42;;;;;;;5.50;1.40;;;;;;;12.66;77.82;98414.08;104748;1274;63793;-23
2022/05/30 03:50:12;;;;;;;2.10;1.70;;;;;;;12.96;78.37;98414.06;104769;1271;63064;-24
2022/05/30 03:52:39;;;;;;;2.50;1.70;;;;;;;13.28;76.91;98407.66;104654;1271;76384;-23
2022/05/30 03:55:11;;;;;;;4.30;1.90;;;;;;;13.18;77.69;98397.86;104875;1274;75511;-23
2022/05/30 03:57:43;;;;;;;4.80;2.40;;;;;;;13.04;78.14;98387.80;105053;1271;74302;-24
2022/05/30 04:00:14;;;;;;;5.10;3.40;;;;;;;12.80;79.59;98383.95;105099;1271;64166;-24
2022/05/30 04:02:42;;;;;;;14.20;7.20;;;;;;;13.06;79.48;98377.65;104817;1274;61868;-23
2022/05/30 04:05:11;;;;;;;24.70;13.00;;;;;;;13.24;78.45;98375.14;104850;1271;74693;-23
2022/05/30 04:07:39;;;;;;;17.10;10.20;;;;;;;13.07;79.37;98367.11;104947;1271;76824;-23
2022/05/30 04:10:25;;;;;;;7.90;3.80;;;;;;;12.94;80.08;98356.05;104911;1271;75235;-24
2022/05/30 04:13:11;;;;;;;5.10;2.20;;;;;;;13.26;79.40;98334.52;104809;1271;63171;-23
2022/05/30 04:15:56;;;;;;;3.50;1.90;;;;;;;13.39;78.90;98318.45;104962;1274;61133;-23
2022/05/30 04:18:30;;;;;;;2.80;2.00;;;;;;;13.07;80.46;98307.29;105063;1271;76298;-23
2022/05/30 04:20:58;;;;;;;2.70;2.30;;;;;;;12.89;80.76;98298.38;105061;1271;77243;-23
2022/05/30 04:23:25;;;;;;;3.30;1.60;;;;;;;12.99;80.96;98284.86;105048;1274;73761;-23
2022/05/30 04:25:56;;;;;;;3.80;2.30;;;;;;;13.28;79.99;98269.27;104797;1271;61862;-23
2022/05/30 04:28:25;;;;;;;7.30;2.80;;;;;;;13.32;79.46;98270.11;104708;1274;62373;-23
2022/05/30 04:31:18;;;;;;;4.30;2.40;;;;;;;13.09;80.40;98274.07;104601;1274;76569;-23
2022/05/30 04:33:45;;;;;;;3.30;2.20;;;;;;;12.94;80.93;98270.44;104600;1271;75403;-23
2022/05/30 04:36:13;;;;;;;11.70;5.70;;;;;;;13.28;80.22;98272.08;104690;1271;74372;-23
2022/05/30 04:38:45;;;;;;;9.30;5.90;;;;;;;13.43;79.21;98264.60;104746;1271;62024;-23
2022/05/30 04:41:32;;;;;;;5.80;3.60;;;;;;;13.18;80.37;98254.25;104695;1273;63093;-24
2022/05/30 04:44:25;;;;;;;2.10;1.50;;;;;;;13.06;81.17;98243.65;104438;1274;76870;-23
2022/05/30 04:47:24;;;;;;;4.00;2.30;;;;;;;13.39;79.90;98238.98;104761;1271;75077;-23
2022/05/30 04:49:52;;;;;;;5.70;3.20;;;;;;;13.47;79.57;98235.38;104695;1271;75524;-23
2022/05/30 04:52:20;;;;;;;6.60;3.90;;;;;;;13.35;79.82;98232.77;104658;1274;61178;-23
2022/05/30 04:54:48;;;;;;;4.90;2.60;;;;;;;13.18;80.19;98229.52;104699;1271;62080;-23
2022/05/30 04:57:31;;;;;;;7.70;3.30;;;;;;;13.49;79.93;98227.17;104694;1271;76410;-23
2022/05/30 05:00:24;;;;;;;6.40;3.10;;;;;;;13.65;79.40;98228.25;104677;1271;74989;-23
2022/05/30 05:02:52;;;;;;;6.20;2.90;;;;;;;13.52;79.55;98223.91;104769;1271;75485;-23
2022/05/30 05:05:21;;;;;;;3.90;2.10;;;;;;;13.26;80.37;98227.85;105037;1270;62490;-23
2022/05/30 05:08:18;;;;;;;5.00;1.60;;;;;;;13.45;80.57;98225.69;105062;1271;61676;-23
2022/05/30 05:11:28;;;;;;;2.50;1.70;;;;;;;13.72;79.29;98215.15;104104;1274;76969;-24
2022/05/30 05:14:14;;;;;;;2.50;1.70;;;;;;;13.52;80.16;98214.64;105059;1271;75993;-23
2022/05/30 05:16:47;;;;;;;1.80;1.20;;;;;;;13.33;80.74;98222.57;105087;1271;75471;-24
2022/05/30 05:19:15;;;;;;;3.70;2.80;;;;;;;13.63;80.63;98221.88;104784;1271;61936;-26
2022/05/30 05:21:45;;;;;;;2.60;1.70;;;;;;;13.85;79.35;98221.38;104618;1274;62006;-26
2022/05/30 05:24:13;;;;;;;4.60;1.70;;;;;;;13.72;79.52;98216.68;104663;1274;76615;-25
2022/05/30 05:27:09;;;;;;;3.30;1.20;;;;;;;13.52;80.39;98206.67;104754;1271;74776;-26
2022/05/30 05:29:38;;;;;;;2.30;1.60;;;;;;;13.73;80.42;98203.55;104751;1271;75407;-26
2022/05/30 05:32:07;;;;;;;1.70;1.10;;;;;;;13.94;79.68;98206.65;104740;1271;62002;-26
2022/05/30 05:34:35;;;;;;;1.30;0.90;;;;;;;13.82;79.94;98207.65;104628;1274;63095;-26
2022/05/30 05:37:03;;;;;;;2.70;0.90;;;;;;;13.61;80.65;98203.05;104818;1271;76584;-26
2022/05/30 05:39:35;;;;;;;1.10;1.00;;;;;;;13.76;81.10;98200.55;104701;1271;77122;-25
2022/05/30 05:42:09;;;;;;;1.50;1.40;;;;;;;14.08;79.85;98202.23;104698;1271;75492;-26
2022/05/30 05:44:37;;;;;;;1.50;1.40;;;;;;;14.00;79.93;98204.76;104852;1271;61274;-26
2022/05/30 05:47:05;;;;;;;2.10;1.50;;;;;;;13.84;80.33;98207.45;104750;1271;62025;-26
2022/05/30 05:49:32;;;;;;;2.20;1.30;;;;;;;13.70;81.16;98202.27;104731;1271;76650;-26
2022/05/30 05:52:00;;;;;;;1.50;1.20;;;;;;;14.08;80.52;98193.84;104657;1274;75719;-26
2022/05/30 05:54:31;;;;;;;2.00;1.50;;;;;;;14.32;79.34;98186.25;104723;1274;75396;-26
2022/05/30 05:57:01;;;;;;;1.80;1.30;;;;;;;14.20;79.39;98183.76;104760;1274;63142;-26
2022/05/30 05:59:39;;;;;;;1.60;1.00;;;;;;;13.97;80.05;98177.71;104829;1274;62416;-26
2022/05/30 06:02:06;;;;;;;2.20;1.40;;;;;;;13.98;81.02;98176.63;104990;1271;76643;-26
2022/05/30 06:04:34;;;;;;;2.20;1.30;;;;;;;14.33;79.68;98195.48;104706;1274;76447;-26
2022/05/30 06:07:20;;;;;;;3.60;1.30;;;;;;;14.30;79.71;98203.13;104596;1274;74274;-26
2022/05/30 06:10:09;;;;;;;2.30;1.60;;;;;;;14.18;79.80;98198.09;104688;1274;63081;-26
2022/05/30 06:12:50;;;;;;;1.70;1.10;;;;;;;14.07;80.28;98197.38;104616;1274;62160;-26
2022/05/30 06:15:18;;;;;;;1.90;1.50;;;;;;;14.47;79.71;98193.91;104672;1273;76555;-25
2022/05/30 06:18:12;;;;;;;2.10;1.60;;;;;;;14.73;78.55;98191.09;104611;1274;75012;-26
2022/05/30 06:20:41;;;;;;;2.60;2.00;;;;;;;14.61;78.64;98189.27;104775;1274;75505;-25
2022/05/30 06:23:10;;;;;;;2.50;1.80;;;;;;;14.38;79.38;98184.31;104729;1274;61922;-25
2022/05/30 06:26:08;;;;;;;2.30;1.30;;;;;;;14.22;80.35;98182.83;104679;1274;61958;-25
2022/05/30 06:29:08;;;;;;;2.00;1.60;;;;;;;14.79;78.65;98181.97;104531;1274;76767;-25
2022/05/30 06:31:36;;;;;;;3.80;2.00;;;;;;;14.95;78.02;98175.81;104590;1271;75785;-26
2022/05/30 06:34:03;;;;;;;2.00;1.60;;;;;;;14.83;78.07;98175.47;104751;1274;75471;-25
2022/05/30 06:36:38;;;;;;;3.80;2.20;;;;;;;14.60;78.73;98176.43;104810;1274;61629;-25
2022/05/30 06:39:05;;;;;;;3.80;1.40;;;;;;;14.44;79.59;98183.10;104858;1274;61604;-25
2022/05/30 06:41:36;;;;;;;2.40;1.70;;;;;;;14.83;78.95;98184.52;104736;1274;75556;-25
2022/05/30 06:44:08;;;;;;;2.20;1.90;;;;;;;15.08;77.73;98184.52;104623;1274;75925;-26
2022/05/30 06:46:54;;;;;;;3.00;1.90;;;;;;;14.99;77.87;98186.89;105015;1274;74248;-25
2022/05/30 06:49:40;;;;;;;3.10;2.10;;;;;;;14.73;78.57;98192.48;105034;1272;62880;-25
2022/05/30 06:52:12;;;;;;;2.30;1.40;;;;;;;14.53;79.57;98193.77;104817;1274;63142;-25
2022/05/30 06:54:40;;;;;;;1.80;1.60;;;;;;;14.89;78.78;98195.25;104713;1274;76374;-25
2022/05/30 06:59:55;;;;;;;3.00;2.00;;;;;;;15.06;77.98;98201.77;104630;1274;75794;-25
2022/05/30 07:02:22;;;;;;;4.00;2.90;;;;;;;14.86;78.12;98202.08;104742;1274;62202;-25
2022/05/30 07:05:08;;;;;;;4.10;2.20;;;;;;;14.66;78.75;98205.65;104737;1271;61561;-25
2022/05/30 07:07:56;;;;;;;3.00;2.30;;;;;;;15.14;78.15;98206.70;104972;1271;76581;-25
2022/05/30 07:10:45;;;;;;;2.70;2.30;;;;;;;15.37;77.16;98204.63;104630;1274;76783;-25
2022/05/30 07:13:13;;;;;;;5.40;2.60;;;;;;;15.23;77.27;98197.90;104875;1271;73912;-25
2022/05/30 07:15:42;;;;;;;3.20;2.80;;;;;;;14.99;77.95;98200.19;104736;1271;61931;-24
2022/05/30 07:18:15;;;;;;;2.00;1.70;;;;;;;14.78;78.92;98205.86;104759;1271;61808;-25
2022/05/30 07:20:42;;;;;;;3.10;2.70;;;;;;;15.14;78.56;98203.63;105027;1271;76644;-25
2022/05/30 07:23:28;;;;;;;4.60;3.10;;;;;;;15.39;77.72;98208.14;104948;1271;75915;-25
2022/05/30 07:26:25;;;;;;;3.40;2.50;;;;;;;15.27;77.93;98209.59;105083;1271;74353;-25
2022/05/30 07:29:22;;;;;;;3.00;2.20;;;;;;;14.99;78.81;98207.53;104325;1271;63111;-25
2022/05/30 07:32:08;;;;;;;2.30;2.10;;;;;;;14.98;79.54;98207.35;104673;1271;62989;-25
2022/05/30 07:34:55;;;;;;;3.40;2.90;;;;;;;15.43;78.10;98212.59;104747;1271;75034;-25
2022/05/30 07:37:57;;;;;;;7.40;3.60;;;;;;;15.43;78.13;98216.71;104597;1273;76999;-25
2022/05/30 07:40:50;;;;;;;4.20;3.30;;;;;;;15.20;79.15;98214.79;104563;1271;75435;-25
2022/05/30 07:43:18;;;;;;;3.00;2.60;;;;;;;15.05;79.76;98221.79;104781;1271;63587;-24
2022/05/30 07:45:53;;;;;;;4.50;3.20;;;;;;;15.45;78.79;98233.09;104704;1272;62530;-24
2022/05/30 07:48:40;;;;;;;3.90;3.40;;;;;;;15.62;77.94;98231.18;104798;1271;76616;-24
2022/05/30 07:51:33;;;;;;;6.30;3.80;;;;;;;15.39;78.33;98231.38;104612;1272;77354;-25
2022/05/30 07:54:26;;;;;;;4.00;2.90;;;;;;;15.04;79.45;98235.79;104767;1271;75796;-25
2022/05/30 07:57:08;;;;;;;3.10;2.80;;;;;;;15.11;79.81;98238.04;104683;1271;61383;-25
2022/05/30 07:59:36;;;;;;;5.80;4.60;;;;;;;15.42;78.55;98241.35;104510;1274;62005;-25
2022/05/30 08:02:05;;;;;;;7.00;4.10;;;;;;;15.38;78.71;98245.68;104762;1271;76570;-25
2022/05/30 08:04:32;;;;;;;7.70;5.50;;;;;;;15.15;79.21;98247.67;104886;1271;76006;-24
2022/05/30 08:07:18;;;;;;;7.20;5.90;;;;;;;14.98;80.06;98246.15;105057;1271;75419;-24
2022/05/30 08:09:48;;;;;;;15.00;8.30;;;;;;;15.31;79.56;98250.77;105086;1271;62726;-25
2022/05/30 08:12:21;;;;;;;10.00;7.60;;;;;;;15.39;78.97;98251.87;104945;1271;61620;-25
2022/05/30 08:14:55;;;;;;;7.80;5.80;;;;;;;15.25;79.33;98250.66;104777;1271;75491;-24
2022/05/30 08:17:25;;;;;;;4.50;3.90;;;;;;;15.10;79.95;98257.77;104608;1274;77185;-24
2022/05/30 08:19:53;;;;;;;5.90;4.70;;;;;;;15.37;79.64;98252.97;104785;1271;75493;-25
2022/05/30 08:22:28;;;;;;;6.30;5.60;;;;;;;15.54;78.49;98252.08;104751;1271;61992;-25
2022/05/30 08:24:55;;;;;;;5.60;5.10;;;;;;;15.44;79.06;98258.05;104692;1272;62144;-25
2022/05/30 08:27:25;;;;;;;5.70;4.60;;;;;;;15.22;79.52;98260.20;104794;1271;74771;-25
2022/05/30 08:29:57;;;;;;;3.90;3.50;;;;;;;15.15;80.44;98264.98;104834;1271;77362;-25
2022/05/30 08:32:35;;;;;;;5.30;4.50;;;;;;;15.58;79.42;98270.60;104835;1271;73902;-25
2022/05/30 08:35:41;;;;;;;6.10;5.10;;;;;;;15.70;78.27;98273.62;104666;1271;62508;-25
2022/05/30 08:38:09;;;;;;;6.80;5.80;;;;;;;15.49;78.75;98268.51;104776;1271;61715;-24
2022/05/30 08:43:35;;;;;;;4.40;4.00;;;;;;;15.68;78.76;98272.45;104618;1271;76964;-25
2022/05/30 08:46:45;;;;;;;5.30;4.70;;;;;;;15.92;77.82;98273.13;104596;1274;75222;-25
2022/05/30 08:49:22;;;;;;;9.50;8.40;;;;;;;15.77;78.25;98269.89;104594;1274;61792;-25
2022/05/30 08:52:21;;;;;;;5.50;4.50;;;;;;;15.52;78.84;98266.75;104621;1272;61870;-25
2022/05/30 08:55:13;;;;;;;7.60;5.10;;;;;;;15.72;79.07;98265.86;104925;1271;75930;-25
2022/05/30 08:57:48;;;;;;;7.40;6.20;;;;;;;16.01;77.89;98266.80;104636;1274;74964;-25
2022/05/30 09:00:36;;;;;;;6.50;5.90;;;;;;;15.89;78.28;98267.54;104751;1271;75205;-25
2022/05/30 09:03:25;;;;;;;7.80;6.60;;;;;;;15.59;78.82;98267.73;104627;1274;61772;-25
2022/05/30 09:05:59;;;;;;;7.20;3.90;;;;;;;15.49;79.91;98270.21;104712;1271;63037;-25
2022/05/30 09:08:32;;;;;;;6.60;5.20;;;;;;;15.97;78.88;98269.05;104864;1272;74578;-25
2022/05/30 09:11:25;;;;;;;6.20;5.60;;;;;;;16.20;78.27;98275.29;104813;1271;77410;-25
2022/05/30 09:13:52;;;;;;;;;;;;;;;16.09;78.12;98272.73;104656;1271;74338;-25
2022/05/30 09:16:31;;;;;;;6.00;5.00;;;;;;;15.87;78.80;98277.50;104796;1271;62125;-25
2022/05/30 09:19:06;;;;;;;5.00;3.30;;;;;;;15.86;79.38;98272.58;104756;1274;62684;-25
2022/05/30 09:21:34;;;;;;;6.40;4.80;;;;;;;16.30;77.73;98275.59;104826;1271;76300;-25
2022/05/30 09:24:02;;;;;;;6.20;5.60;;;;;;;16.43;77.41;98276.80;104792;1274;77496;-25
2022/05/30 09:26:35;;;;;;;7.50;5.50;;;;;;;16.40;77.60;98280.31;104848;1271;74088;-25
2022/05/30 09:29:19;;;;;;;6.70;5.20;;;;;;;16.26;78.44;98277.06;104772;1272;61946;-25
2022/05/30 09:32:29;;;;;;;4.10;3.10;;;;;;;16.20;79.11;98273.58;104843;1271;61036;-25
2022/05/30 09:35:30;;;;;;;5.90;5.00;;;;;;;16.76;77.16;98274.10;104724;1271;76458;-25
2022/05/30 09:38:23;;;;;;;7.00;5.00;;;;;;;16.81;76.41;98277.43;104477;1271;75937;-25
2022/05/30 09:40:57;;;;;;;12.50;5.70;;;;;;;16.58;76.91;98278.58;104791;1271;74268;-25
2022/05/30 09:43:51;;;;;;;6.60;4.40;;;;;;;16.36;77.87;98279.66;104864;1271;62036;-25
2022/05/30 09:46:20;;;;;;;5.50;3.60;;;;;;;16.38;78.54;98280.70;104512;1271;62800;-25
2022/05/30 09:49:22;;;;;;;5.10;4.40;;;;;;;16.87;77.42;98280.53;104413;1274;76737;-26
2022/05/30 09:52:02;;;;;;;5.70;4.90;;;;;;;16.92;76.95;98279.27;105082;1271;74848;-26
2022/05/30 09:54:31;;;;;;;6.90;5.10;;;;;;;16.83;77.27;98277.54;104657;1277;75596;-25
2022/05/30 09:57:00;;;;;;;3.80;2.90;;;;;;;16.72;77.75;98277.38;104661;1271;64942;-26
2022/05/30 09:59:43;;;;;;;6.10;3.90;;;;;;;17.29;77.02;98275.71;104890;1271;62003;-26
2022/05/30 10:02:27;;;;;;;5.90;3.80;;;;;;;17.70;75.28;98275.16;104693;1271;75466;-26
2022/05/30 10:05:04;;;;;;;4.80;4.20;;;;;;;17.61;74.34;98273.73;104693;1271;75340;-26
2022/05/30 10:07:33;;;;;;;5.30;4.10;;;;;;;17.42;75.18;98278.14;104693;1271;74276;-26
2022/05/30 10:10:24;;;;;;;5.80;2.90;;;;;;;17.20;75.74;98278.94;104598;1272;61889;-27
2022/05/30 10:13:03;;;;;;;6.20;3.50;;;;;;;17.31;76.30;98275.37;104618;1271;61594;-27
2022/05/30 10:15:56;;;;;;;4.90;3.70;;;;;;;17.71;74.83;98276.20;104450;1271;76587;-27
2022/05/30 10:18:32;;;;;;;4.60;4.20;;;;;;;17.71;74.51;98274.17;104372;1271;338574;-27
2022/05/30 10:21:12;;;;;;;5.50;4.50;;;;;;;17.61;75.16;98270.74;104586;1274;75420;-27
2022/05/30 10:28:23;;;;;;;7.80;3.50;;;;;;;18.09;74.21;98274.73;104288;1277;61185;-27
2022/05/30 10:31:52;;;;;;;5.10;4.10;;;;;;;18.16;73.12;98277.23;104462;1274;75735;-28
2022/05/30 10:34:30;;;;;;;7.20;4.20;;;;;;;17.88;73.52;98277.18;104667;1271;75387;-27
2022/05/30 10:37:05;;;;;;;4.40;3.00;;;;;;;17.70;74.11;98280.52;104764;1271;74326;-27
2022/05/30 10:39:48;;;;;;;4.50;3.10;;;;;;;18.12;73.89;98278.10;104685;1274;61855;-27
2022/05/30 10:42:23;;;;;;;5.30;3.60;;;;;;;18.37;73.45;98277.89;104773;1271;61057;-27
2022/05/30 10:44:55;;;;;;;4.90;3.20;;;;;;;18.46;73.28;98279.08;104468;1272;76601;-26
2022/05/30 10:47:38;;;;;;;5.80;4.00;;;;;;;18.48;73.20;98281.64;104917;1271;74907;-26
2022/05/30 10:50:11;;;;;;;5.80;2.40;;;;;;;18.39;73.08;98280.86;104583;1275;74205;-24
2022/05/30 10:52:47;;;;;;;6.80;4.60;;;;;;;18.51;71.47;98286.20;104725;1271;62020;-24
2022/05/30 10:55:20;;;;;;;4.50;4.10;;;;;;;18.51;71.80;98291.62;104664;1273;63096;-24
2022/05/30 10:57:58;;;;;;;7.40;4.20;;;;;;;18.63;72.80;98296.30;104666;1271;76832;-23
2022/05/30 11:00:29;;;;;;;3.90;3.50;;;;;;;18.66;73.14;98296.11;104774;1272;77075;-24
2022/05/30 11:03:07;;;;;;;4.00;2.30;;;;;;;18.69;72.59;98295.89;104590;1271;73371;-23
2022/05/30 11:06:05;;;;;;;5.50;2.80;;;;;;;18.67;73.15;98296.64;104548;1274;64800;-24
2022/05/30 11:08:41;;;;;;;6.60;3.30;;;;;;;19.20;70.58;98295.36;104644;1274;63025;-26
2022/05/30 11:11:19;;;;;;;6.50;3.40;;;;;;;19.16;69.82;98294.61;104607;1274;77008;-24
2022/05/30 11:14:00;;;;;;;6.10;3.50;;;;;;;18.79;70.90;98295.31;104463;1274;77317;-24
2022/05/30 11:16:49;;;;;;;3.30;3.00;;;;;;;18.69;71.64;98297.96;104718;1274;74534;-24
2022/05/30 11:19:55;;;;;;;6.80;2.60;;;;;;;18.33;72.29;98296.77;104579;1274;63158;-24
2022/05/30 11:22:49;;;;;;;3.90;3.30;;;;;;;18.36;72.80;98298.27;104648;1271;63365;-24
2022/05/30 11:25:21;;;;;;;4.10;3.00;;;;;;;18.63;71.55;98304.77;104744;1274;75598;-24
2022/05/30 11:27:59;;;;;;;4.20;3.50;;;;;;;18.52;71.85;98305.58;104586;1274;76161;-24
2022/05/30 11:30:50;;;;;;;4.10;3.30;;;;;;;18.23;72.74;98307.11;104661;1274;75523;-24
2022/05/30 11:33:47;;;;;;;5.10;2.10;;;;;;;18.07;73.12;98303.17;104620;1274;61754;-24
2022/05/30 11:36:23;;;;;;;3.10;2.80;;;;;;;18.17;72.34;98305.38;104629;1274;62825;-24
2022/05/30 11:39:08;;;;;;;4.10;2.90;;;;;;;18.60;71.89;98308.46;104619;1274;75516;-25
2022/05/30 11:41:55;;;;;;;7.90;2.70;;;;;;;18.38;72.29;98305.59;104675;1274;77009;-24
2022/05/30 11:44:25;;;;;;;3.50;2.80;;;;;;;18.33;72.61;98310.10;104624;1274;74516;-25
2022/05/30 11:47:15;;;;;;;4.30;2.40;;;;;;;18.29;72.68;98309.34;104688;1274;63449;-24
2022/05/30 11:50:07;;;;;;;4.30;2.80;;;;;;;18.69;71.56;98315.52;104670;1274;62763;-24
2022/05/30 11:52:44;;;;;;;4.80;3.50;;;;;;;18.87;71.05;98318.03;104629;1274;76579;-24
2022/05/30 11:55:21;;;;;;;4.30;2.70;;;;;;;18.74;70.42;98320.02;104677;1274;75351;-24
2022/05/30 11:58:02;;;;;;;5.00;4.40;;;;;;;18.58;71.56;98319.92;104628;1274;75531;-24
2022/05/30 12:00:37;;;;;;;3.50;3.00;;;;;;;18.70;71.51;98325.63;104619;1274;61146;-24
2022/05/30 12:03:04;;;;;;;3.00;2.60;;;;;;;18.90;71.43;98325.59;104585;1274;61901;-24
2022/05/30 12:05:53;;;;;;;5.90;2.40;;;;;;;19.31;69.48;98328.35;104717;1274;75447;-24
2022/05/30 12:08:39;;;;;;;3.50;2.50;;;;;;;19.11;68.83;98329.80;104582;1274;75706;-24
2022/05/30 12:11:28;;;;;;;3.30;2.60;;;;;;;19.14;69.58;98333.98;104756;1271;74518;-24
2022/05/30 12:14:05;;;;;;;4.00;2.90;;;;;;;18.81;69.59;98337.58;104713;1272;61093;-24
2022/05/30 12:16:57;;;;;;;4.70;3.00;;;;;;;18.43;70.51;98333.23;104699;1272;61952;-24
2022/05/30 12:24:59;;;;;;;2.60;2.30;;;;;;;18.94;68.56;98341.58;104729;1271;73430;-24
2022/05/30 12:27:36;;;;;;;2.90;1.90;;;;;;;19.00;69.43;98340.47;104707;1271;62925;-24
2022/05/30 12:30:14;;;;;;;5.10;2.80;;;;;;;18.98;69.60;98339.01;104734;1271;62098;-24